Royal Prince — WCX8037 — position and weather

sailwx.info

Track history (hours):
 
Tides and Currents Weather Stations Pressure Air Temp Water Temp Dewpoint Dewpoint Depression Visibility Wind Speed Wind Dir Waves Ship Positions

Royal Prince

More information available from US FCC via Universal Licensing System and Coast Guard Vessel Documentation Center.

Last reported at 2014-Aug-21 02:18 UTC. Time now 2014-Aug-21 14:06 UTC.
Position N 37°49' W 122°25'.

Length 28 m; draft 2.3 m.

Type: Passenger vessel. MMSI: 366975760.

Date/timePositionNaut miles runAvg speedWind from/ knotsBaromVisibWave heightAir tempDewpointWater temp
2014-Aug-21 02:18N 37°49' W 122°25'1 1.1
2014-Aug-21 01:33N 37°49' W 122°25'1 0.8
2014-Aug-21 00:33N 37°49' W 122°25'2 1.9
2014-Aug-20 23:33N 37°49' W 122°27'1 0.5
2014-Aug-20 22:33N 37°49' W 122°27'2 2.3
2014-Aug-20 21:33N 37°49' W 122°24'1 0.5
2014-Aug-20 20:33N 37°49' W 122°25'2 2.1
2014-Aug-20 19:33N 37°49' W 122°27'2 2.0
2014-Aug-20 18:33N 37°49' W 122°25'1 0.8
2014-Aug-20 17:33N 37°49' W 122°25'0 0.0
2014-Aug-20 02:19N 37°49' W 122°25'1 1.1
2014-Aug-20 01:33N 37°49' W 122°25'1 0.9
2014-Aug-20 00:33N 37°49' W 122°25'1 0.8
2014-Aug-19 23:33N 37°49' W 122°26'2 1.7
2014-Aug-19 22:33N 37°49' W 122°28'3 2.8
2014-Aug-19 21:33N 37°49' W 122°24'1 0.6
2014-Aug-19 20:33N 37°49' W 122°25'3 3.2
2014-Aug-19 19:33N 37°49' W 122°29'3 2.8
2014-Aug-19 18:33N 37°50' W 122°25'1 0.1
2014-Aug-19 04:34N 37°49' W 122°25'3 2.7
2014-Aug-19 03:33N 37°49' W 122°28'4 3.8
2014-Aug-19 02:34N 37°52' W 122°25'3 3.0
2014-Aug-19 01:34N 37°49' W 122°25'0 0.0
2014-Aug-19 00:33N 37°49' W 122°25'3 3.1
2014-Aug-18 23:33N 37°49' W 122°29'5 4.7
2014-Aug-18 22:34N 37°48' W 122°23'2 2.1
2014-Aug-18 21:34N 37°49' W 122°25'1 1.0
2014-Aug-18 20:33N 37°49' W 122°24'1 0.8
2014-Aug-18 19:33N 37°49' W 122°25'0 0.0
2014-Aug-18 04:12N 37°49' W 122°25'2 3.8
2014-Aug-18 03:33N 37°49' W 122°28'3 3.3
2014-Aug-18 02:33N 37°51' W 122°25'3 2.5
2014-Aug-18 01:33N 37°49' W 122°25'0 0.0
2014-Aug-18 00:33N 37°49' W 122°25'0 0.0
2014-Aug-17 04:27N 37°49' W 122°25'2 2.1
2014-Aug-17 03:33N 37°49' W 122°27'3 3.2
2014-Aug-17 02:33N 37°51' W 122°25'3 2.9
2014-Aug-17 01:33N 37°49' W 122°25'0 0.0
2014-Aug-17 00:33N 37°49' W 122°25'2 2.1
2014-Aug-16 23:33N 37°50' W 122°27'2 2.4
2014-Aug-16 22:33N 37°49' W 122°24'2 2.0
2014-Aug-16 21:33N 37°49' W 122°27'3 3.3
2014-Aug-16 20:33N 37°48' W 122°23'2 1.7
2014-Aug-16 19:33N 37°49' W 122°25'0 0.0
2014-Aug-16 18:33N 37°49' W 122°25'0 0.0
2014-Aug-16 04:32N 37°49' W 122°25'2 2.0
2014-Aug-16 03:33N 37°49' W 122°27'3 3.2
2014-Aug-16 02:33N 37°51' W 122°25'3 2.6
2014-Aug-16 01:33N 37°49' W 122°25'0 0.0
2014-Aug-16 00:33N 37°49' W 122°25'2 2.0
2014-Aug-15 23:33N 37°50' W 122°27'3 2.8
2014-Aug-15 22:33N 37°48' W 122°24'2 1.9
2014-Aug-15 21:33N 37°49' W 122°26'3 3.0
2014-Aug-15 20:33N 37°48' W 122°23'2 2.0
2014-Aug-15 19:33N 37°49' W 122°25'0 0.0
2014-Aug-15 04:33N 37°49' W 122°25'2 1.7
2014-Aug-15 03:33N 37°49' W 122°27'3 3.3
2014-Aug-15 02:33N 37°52' W 122°25'3 3.0
2014-Aug-15 01:33N 37°49' W 122°25'0 0.0
2014-Aug-15 00:33N 37°49' W 122°25'2 2.4
2014-Aug-14 23:33N 37°49' W 122°28'3 3.3
2014-Aug-14 22:33N 37°48' W 122°24'2 1.7
2014-Aug-14 21:33N 37°49' W 122°26'2 2.3
2014-Aug-14 20:33N 37°48' W 122°23'2 1.5
2014-Aug-14 19:33N 37°49' W 122°25'0 0.0
2014-Aug-14 04:08N 37°49' W 122°25'3 5.1
2014-Aug-14 03:33N 37°49' W 122°29'3 3.3
2014-Aug-14 02:33N 37°51' W 122°25'2 2.3
2014-Aug-14 01:33N 37°49' W 122°25'0 0.0
2014-Aug-14 00:33N 37°49' W 122°25'2 1.6
2014-Aug-13 23:33N 37°50' W 122°27'2 2.0
2014-Aug-13 22:33N 37°49' W 122°24'2 2.5
2014-Aug-13 21:33N 37°49' W 122°27'4 4.0
2014-Aug-13 20:33N 37°47' W 122°23'2 2.2
2014-Aug-13 19:33N 37°49' W 122°25'0 0.0
2014-Aug-13 04:34N 37°49' W 122°25'3 3.2
2014-Aug-13 03:33N 37°49' W 122°29'3 2.8
2014-Aug-13 02:34N 37°50' W 122°25'2 1.7
2014-Aug-13 01:33N 37°49' W 122°25'0 0.0
2014-Aug-13 00:34N 37°49' W 122°25'2 1.6
2014-Aug-12 23:33N 37°50' W 122°27'2 1.8
2014-Aug-12 22:33N 37°49' W 122°24'3 2.7
2014-Aug-12 21:33N 37°49' W 122°28'4 4.4
2014-Aug-12 20:33N 37°47' W 122°23'2 2.1
2014-Aug-12 19:34N 37°49' W 122°25'0 0.0
2014-Aug-12 04:13N 37°49' W 122°25'3 4.4
2014-Aug-12 03:33N 37°50' W 122°28'3 2.7
2014-Aug-12 02:33N 37°51' W 122°25'2 2.0
2014-Aug-12 01:33N 37°49' W 122°25'0 0.0
2014-Aug-12 00:33N 37°49' W 122°25'2 2.2
2014-Aug-11 23:33N 37°49' W 122°27'4 3.6
2014-Aug-11 22:33N 37°48' W 122°23'2 2.4
2014-Aug-11 21:33N 37°49' W 122°26'3 3.0
2014-Aug-11 20:33N 37°48' W 122°23'2 2.0
2014-Aug-11 19:33N 37°49' W 122°25'0 0.0
2014-Aug-11 04:09N 37°49' W 122°25'3 5.2
2014-Aug-11 03:33N 37°49' W 122°29'3 3.3
2014-Aug-11 02:33N 37°51' W 122°25'  
Track history (hours):
 
Tides and Currents Weather Stations Pressure Air Temp Water Temp Dewpoint Dewpoint Depression Visibility Wind Speed Wind Dir Waves Ship Positions

Royal Prince

More information available from US FCC via Universal Licensing System and Coast Guard Vessel Documentation Center.

Last reported at 2014-Aug-21 02:18 UTC. Time now 2014-Aug-21 14:06 UTC.
Position N 37°49' W 122°25'.

Length 28 m; draft 2.3 m.

Type: Passenger vessel. MMSI: 366975760.

Date/timePositionNaut miles runAvg speedWind from/ knotsBaromVisibWave heightAir tempDewpointWater temp
2014-Aug-21 02:18N 37°49' W 122°25'1 1.1
2014-Aug-21 01:33N 37°49' W 122°25'1 0.8
2014-Aug-21 00:33N 37°49' W 122°25'2 1.9
2014-Aug-20 23:33N 37°49' W 122°27'1 0.5
2014-Aug-20 22:33N 37°49' W 122°27'2 2.3
2014-Aug-20 21:33N 37°49' W 122°24'1 0.5
2014-Aug-20 20:33N 37°49' W 122°25'2 2.1
2014-Aug-20 19:33N 37°49' W 122°27'2 2.0
2014-Aug-20 18:33N 37°49' W 122°25'1 0.8
2014-Aug-20 17:33N 37°49' W 122°25'0 0.0
2014-Aug-20 02:19N 37°49' W 122°25'1 1.1
2014-Aug-20 01:33N 37°49' W 122°25'1 0.9
2014-Aug-20 00:33N 37°49' W 122°25'1 0.8
2014-Aug-19 23:33N 37°49' W 122°26'2 1.7
2014-Aug-19 22:33N 37°49' W 122°28'3 2.8
2014-Aug-19 21:33N 37°49' W 122°24'1 0.6
2014-Aug-19 20:33N 37°49' W 122°25'3 3.2
2014-Aug-19 19:33N 37°49' W 122°29'3 2.8
2014-Aug-19 18:33N 37°50' W 122°25'1 0.1
2014-Aug-19 04:34N 37°49' W 122°25'3 2.7
2014-Aug-19 03:33N 37°49' W 122°28'4 3.8
2014-Aug-19 02:34N 37°52' W 122°25'3 3.0
2014-Aug-19 01:34N 37°49' W 122°25'0 0.0
2014-Aug-19 00:33N 37°49' W 122°25'3 3.1
2014-Aug-18 23:33N 37°49' W 122°29'5 4.7
2014-Aug-18 22:34N 37°48' W 122°23'2 2.1
2014-Aug-18 21:34N 37°49' W 122°25'1 1.0
2014-Aug-18 20:33N 37°49' W 122°24'1 0.8
2014-Aug-18 19:33N 37°49' W 122°25'0 0.0
2014-Aug-18 04:12N 37°49' W 122°25'2 3.8
2014-Aug-18 03:33N 37°49' W 122°28'3 3.3
2014-Aug-18 02:33N 37°51' W 122°25'3 2.5
2014-Aug-18 01:33N 37°49' W 122°25'0 0.0
2014-Aug-18 00:33N 37°49' W 122°25'0 0.0
2014-Aug-17 04:27N 37°49' W 122°25'2 2.1
2014-Aug-17 03:33N 37°49' W 122°27'3 3.2
2014-Aug-17 02:33N 37°51' W 122°25'3 2.9
2014-Aug-17 01:33N 37°49' W 122°25'0 0.0
2014-Aug-17 00:33N 37°49' W 122°25'2 2.1
2014-Aug-16 23:33N 37°50' W 122°27'2 2.4
2014-Aug-16 22:33N 37°49' W 122°24'2 2.0
2014-Aug-16 21:33N 37°49' W 122°27'3 3.3
2014-Aug-16 20:33N 37°48' W 122°23'2 1.7
2014-Aug-16 19:33N 37°49' W 122°25'0 0.0
2014-Aug-16 18:33N 37°49' W 122°25'0 0.0
2014-Aug-16 04:32N 37°49' W 122°25'2 2.0
2014-Aug-16 03:33N 37°49' W 122°27'3 3.2
2014-Aug-16 02:33N 37°51' W 122°25'3 2.6
2014-Aug-16 01:33N 37°49' W 122°25'0 0.0
2014-Aug-16 00:33N 37°49' W 122°25'2 2.0
2014-Aug-15 23:33N 37°50' W 122°27'3 2.8
2014-Aug-15 22:33N 37°48' W 122°24'2 1.9
2014-Aug-15 21:33N 37°49' W 122°26'3 3.0
2014-Aug-15 20:33N 37°48' W 122°23'2 2.0
2014-Aug-15 19:33N 37°49' W 122°25'0 0.0
2014-Aug-15 04:33N 37°49' W 122°25'2 1.7
2014-Aug-15 03:33N 37°49' W 122°27'3 3.3
2014-Aug-15 02:33N 37°52' W 122°25'3 3.0
2014-Aug-15 01:33N 37°49' W 122°25'0 0.0
2014-Aug-15 00:33N 37°49' W 122°25'2 2.4
2014-Aug-14 23:33N 37°49' W 122°28'3 3.3
2014-Aug-14 22:33N 37°48' W 122°24'2 1.7
2014-Aug-14 21:33N 37°49' W 122°26'2 2.3
2014-Aug-14 20:33N 37°48' W 122°23'2 1.5
2014-Aug-14 19:33N 37°49' W 122°25'0 0.0
2014-Aug-14 04:08N 37°49' W 122°25'3 5.1
2014-Aug-14 03:33N 37°49' W 122°29'3 3.3
2014-Aug-14 02:33N 37°51' W 122°25'2 2.3
2014-Aug-14 01:33N 37°49' W 122°25'0 0.0
2014-Aug-14 00:33N 37°49' W 122°25'2 1.6
2014-Aug-13 23:33N 37°50' W 122°27'2 2.0
2014-Aug-13 22:33N 37°49' W 122°24'2 2.5
2014-Aug-13 21:33N 37°49' W 122°27'4 4.0
2014-Aug-13 20:33N 37°47' W 122°23'2 2.2
2014-Aug-13 19:33N 37°49' W 122°25'0 0.0
2014-Aug-13 04:34N 37°49' W 122°25'3 3.2
2014-Aug-13 03:33N 37°49' W 122°29'3 2.8
2014-Aug-13 02:34N 37°50' W 122°25'2 1.7
2014-Aug-13 01:33N 37°49' W 122°25'0 0.0
2014-Aug-13 00:34N 37°49' W 122°25'2 1.6
2014-Aug-12 23:33N 37°50' W 122°27'2 1.8
2014-Aug-12 22:33N 37°49' W 122°24'3 2.7
2014-Aug-12 21:33N 37°49' W 122°28'4 4.4
2014-Aug-12 20:33N 37°47' W 122°23'2 2.1
2014-Aug-12 19:34N 37°49' W 122°25'0 0.0
2014-Aug-12 04:13N 37°49' W 122°25'3 4.4
2014-Aug-12 03:33N 37°50' W 122°28'3 2.7
2014-Aug-12 02:33N 37°51' W 122°25'2 2.0
2014-Aug-12 01:33N 37°49' W 122°25'0 0.0
2014-Aug-12 00:33N 37°49' W 122°25'2 2.2
2014-Aug-11 23:33N 37°49' W 122°27'4 3.6
2014-Aug-11 22:33N 37°48' W 122°23'2 2.4
2014-Aug-11 21:33N 37°49' W 122°26'3 3.0
2014-Aug-11 20:33N 37°48' W 122°23'2 2.0
2014-Aug-11 19:33N 37°49' W 122°25'0 0.0
2014-Aug-11 04:09N 37°49' W 122°25'3 5.2
2014-Aug-11 03:33N 37°49' W 122°29'3 3.3
2014-Aug-11 02:33N 37°51' W 122°25'  

Dump ship's entire track history